Startpagina
METAR-TAF:

METAR-TAF

Vliegvelden :

Aeropuerto Internacional Jorge Chávez

Lima, Peru

breedte: 12-00S, lengte: 077-07W, hoogte: 12 m

Actueel weer

Dit bericht is 51 minuten geleden gemaakt, om 08:00 UTC
Wind 10 kt uit het zuidzuidoosten
Temperatuur 16°C
Vochtigheid 88%
Druk 1011 hPa
Zicht: 8000 m
Geheel bewolkt op 700 ft

METAR: SPJC 230800Z 16010KT 8000 OVC007 16/14 Q1011 NOSIG RMK PP000

Tijdstip: 03:51 (08:51 UTC)

Verwachting

Dit bericht is 3 uur en het 51 minuten geleden gemaakt, om 05:00 UTC
Verwachting geldig van 23 om 06 UTC tot 24 om 06 UTC
Wind 7 kt uit het zuiden
Zicht: 8000 m
Geheel bewolkt op 1000 ft
Tijdelijke
van 23 om 09 UTC tot 23 om 12 UTC
Zicht: 4000 m
nevel
Wijzigt naar
van 23 om 14 UTC tot 23 om 16 UTC
Weinig wolken op 1000 ft
Geheel bewolkt op 1500 ft
Van 23 om 1700 UTC
Wind 13 kt uit het zuiden
Zicht 10 km of meer
Gebroken wolken op 2000 ft

TAF: SPJC 230500Z 2306/2406 18007KT 8000 OVC010 TX19/2319Z TN15/2311Z TEMPO 2309/2312 4000 BR BECMG 2314/2316 FEW010 OVC015 FM231700 18013KT 9999 BKN020

Waarnemingen en weersverwachtingen van meer dan 4000 vliegvelden (METAR en TAF).

De beschikbare stations zijn de gele en rode punten op de kaart.

Ga met uw muis naar het station om de naam te zien.

Klik dan om waarnemingen en weersverwachtingen te zien.

kaart wijzigen: klik op de groene knoppen met een zwart kruis om in te zoomen, op de groene knop met een streepje om uit te zoomen of op de groene pijlen voor aangrenzende kaarten.


METAR-TAF: